Time;durP1;ratioP1;P1;durP2;ratioP2;P2;SDS_P1;SDS_P2;PMS_P1;PMS_P2;Temp;Humidity;BMP_temperature;BMP_pressure;BME280_temperature;BME280_humidity;BME280_pressure;Samples;Min_cycle;Max_cycle;Signal;HPM_P1;HPM_P2
2022/08/25 00:00:20;;;;;;;1.52;1.30;;;;;;;;;;4985899;28;20396;-42
2022/08/25 00:02:47;;;;;;;1.90;1.48;;;;;;;;;;4984806;28;20365;-49
2022/08/25 00:05:13;;;;;;;1.67;1.50;;;;;;;;;;4983441;28;20045;-44
2022/08/25 00:07:39;;;;;;;2.38;1.80;;;;;;;;;;4983463;28;20035;-43
2022/08/25 00:10:06;;;;;;;1.52;1.33;;;;;;;;;;4986793;28;20109;-43
2022/08/25 00:12:32;;;;;;;1.77;1.52;;;;;;;;;;4986302;28;20468;-44
2022/08/25 00:14:58;;;;;;;2.28;1.50;;;;;;;;;;4993073;28;20041;-42
2022/08/25 00:17:24;;;;;;;1.98;1.65;;;;;;;;;;4993680;28;20035;-44
2022/08/25 00:19:50;;;;;;;1.70;1.60;;;;;;;;;;4992048;28;20041;-47
2022/08/25 00:22:16;;;;;;;1.65;1.17;;;;;;;;;;4991118;28;20110;-43
2022/08/25 00:24:42;;;;;;;2.28;1.60;;;;;;;;;;4993821;28;20129;-44
2022/08/25 00:27:11;;;;;;;1.55;1.45;;;;;;;;;;4993068;28;20037;-43
2022/08/25 00:29:37;;;;;;;1.95;1.58;;;;;;;;;;4993596;28;20124;-43
2022/08/25 00:32:04;;;;;;;1.85;1.48;;;;;;;;;;4992746;28;20030;-43
2022/08/25 00:34:33;;;;;;;1.65;1.40;;;;;;;;;;4993905;28;20034;-43
2022/08/25 00:36:59;;;;;;;2.10;1.48;;;;;;;;;;4992767;28;20034;-42
2022/08/25 00:39:26;;;;;;;1.83;1.63;;;;;;;;;;4988483;28;20030;-42
2022/08/25 00:41:53;;;;;;;2.05;1.45;;;;;;;;;;4992950;28;20109;-42
2022/08/25 00:44:19;;;;;;;2.75;1.52;;;;;;;;;;4993391;28;20053;-45
2022/08/25 00:46:48;;;;;;;3.05;1.27;;;;;;;;;;4992591;28;20109;-42
2022/08/25 00:49:17;;;;;;;2.72;1.33;;;;;;;;;;4992818;28;20026;-42
2022/08/25 00:51:46;;;;;;;1.60;1.40;;;;;;;;;;4992723;28;20034;-43
2022/08/25 00:54:15;;;;;;;1.80;1.70;;;;;;;;;;4992438;28;20056;-42
2022/08/25 00:56:41;;;;;;;2.00;1.40;;;;;;;;;;4989038;28;20038;-44
2022/08/25 00:59:07;;;;;;;1.67;1.42;;;;;;;;;;4992311;28;20030;-42
2022/08/25 01:01:34;;;;;;;2.03;1.50;;;;;;;;;;4992876;28;20129;-43
2022/08/25 01:04:00;;;;;;;2.85;1.58;;;;;;;;;;4992295;28;20391;-42
2022/08/25 01:06:27;;;;;;;1.77;1.42;;;;;;;;;;4995598;28;20034;-43
2022/08/25 01:08:53;;;;;;;1.63;1.50;;;;;;;;;;4991925;28;20031;-42
2022/08/25 01:11:20;;;;;;;3.00;1.40;;;;;;;;;;4993197;28;20030;-43
2022/08/25 01:13:53;;;;;;;1.92;1.58;;;;;;;;;;4987981;28;20030;-41
2022/08/25 01:16:18;;;;;;;1.52;1.42;;;;;;;;;;4992741;28;20054;-42
2022/08/25 01:18:55;;;;;;;2.50;1.60;;;;;;;;;;4992787;28;20113;-42
2022/08/25 01:21:23;;;;;;;1.95;1.50;;;;;;;;;;4992806;28;20376;-41
2022/08/25 01:23:51;;;;;;;2.33;1.60;;;;;;;;;;4992970;28;20018;-46
2022/08/25 01:26:17;;;;;;;3.13;2.03;;;;;;;;;;4992534;28;20026;-42
2022/08/25 01:31:29;;;;;;;2.90;1.60;;;;;;;;;;4990565;28;20037;-42
2022/08/25 01:33:57;;;;;;;1.75;1.60;;;;;;;;;;4991527;28;20033;-42
2022/08/25 01:36:25;;;;;;;2.50;2.30;;;;;;;;;;4992658;28;20045;-42
2022/08/25 01:38:51;;;;;;;2.20;1.88;;;;;;;;;;4992150;28;20030;-48
2022/08/25 01:41:21;;;;;;;2.58;1.83;;;;;;;;;;4992083;28;20037;-42
2022/08/25 01:43:47;;;;;;;1.67;1.58;;;;;;;;;;4993080;28;20468;-42
2022/08/25 01:46:13;;;;;;;2.88;1.92;;;;;;;;;;4985963;28;20026;-41
2022/08/25 01:48:39;;;;;;;2.00;1.80;;;;;;;;;;4991892;28;20034;-42
2022/08/25 01:51:05;;;;;;;2.50;2.00;;;;;;;;;;4991448;28;20054;-42
2022/08/25 01:53:31;;;;;;;2.53;2.00;;;;;;;;;;4992222;28;20380;-42
2022/08/25 01:56:01;;;;;;;2.63;1.83;;;;;;;;;;4991486;28;20038;-42
2022/08/25 01:58:31;;;;;;;2.13;1.67;;;;;;;;;;4992413;28;20018;-42
2022/08/25 02:00:58;;;;;;;2.38;2.17;;;;;;;;;;4990034;28;20058;-45
2022/08/25 02:03:25;;;;;;;3.03;1.65;;;;;;;;;;4987828;28;20130;-43
2022/08/25 02:05:52;;;;;;;1.80;1.58;;;;;;;;;;4994487;28;20079;-47
2022/08/25 02:08:18;;;;;;;3.35;1.92;;;;;;;;;;4991974;28;20033;-41
2022/08/25 02:10:45;;;;;;;7.20;3.25;;;;;;;;;;4992336;28;20105;-42
2022/08/25 02:13:11;;;;;;;2.80;2.03;;;;;;;;;;4990943;28;20030;-42
2022/08/25 02:15:41;;;;;;;1.75;1.63;;;;;;;;;;4992344;28;20058;-42
2022/08/25 02:18:08;;;;;;;2.35;2.03;;;;;;;;;;4985860;28;20579;-42
2022/08/25 02:20:34;;;;;;;2.95;1.92;;;;;;;;;;4992115;28;20041;-41
2022/08/25 02:23:00;;;;;;;2.33;1.73;;;;;;;;;;4991359;28;20037;-41
2022/08/25 02:25:26;;;;;;;2.03;1.77;;;;;;;;;;4991787;28;20031;-41
2022/08/25 02:27:52;;;;;;;2.92;2.33;;;;;;;;;;4991974;28;20023;-41
2022/08/25 02:30:18;;;;;;;2.35;1.80;;;;;;;;;;4991415;28;20467;-42
2022/08/25 02:32:44;;;;;;;1.70;1.60;;;;;;;;;;4992023;28;20018;-42
2022/08/25 02:35:10;;;;;;;2.53;1.92;;;;;;;;;;4985295;28;20031;-42
2022/08/25 02:37:36;;;;;;;2.20;1.98;;;;;;;;;;4992096;28;20034;-46
2022/08/25 02:40:03;;;;;;;1.77;1.67;;;;;;;;;;4983195;28;20468;-42
2022/08/25 02:42:29;;;;;;;2.40;1.83;;;;;;;;;;4991896;28;20066;-42
2022/08/25 02:44:55;;;;;;;3.53;2.28;;;;;;;;;;4991529;28;20121;-48
2022/08/25 02:47:22;;;;;;;2.30;2.10;;;;;;;;;;4991514;28;20077;-42
2022/08/25 02:49:48;;;;;;;3.03;1.90;;;;;;;;;;4990061;28;20407;-42
2022/08/25 02:52:15;;;;;;;2.53;2.20;;;;;;;;;;4988353;28;20057;-43
2022/08/25 02:54:41;;;;;;;2.85;1.88;;;;;;;;;;4991506;28;20036;-42
2022/08/25 02:57:09;;;;;;;1.92;1.70;;;;;;;;;;4991120;28;20030;-43
2022/08/25 02:59:35;;;;;;;2.80;2.10;;;;;;;;;;4991681;28;20062;-42
2022/08/25 03:02:01;;;;;;;3.40;2.67;;;;;;;;;;4990605;28;20073;-44
2022/08/25 03:04:27;;;;;;;2.80;2.20;;;;;;;;;;4992058;28;20034;-45
2022/08/25 03:06:53;;;;;;;4.75;2.20;;;;;;;;;;4991491;28;20487;-42
2022/08/25 03:09:19;;;;;;;3.17;2.45;;;;;;;;;;4989497;28;20030;-42
2022/08/25 03:11:46;;;;;;;4.20;2.10;;;;;;;;;;4991546;28;20459;-42
2022/08/25 03:14:12;;;;;;;2.83;2.00;;;;;;;;;;4974534;28;20042;-42
2022/08/25 03:16:38;;;;;;;2.83;2.13;;;;;;;;;;4995260;28;20033;-42
2022/08/25 03:19:04;;;;;;;2.35;2.10;;;;;;;;;;4994499;28;20026;-42
2022/08/25 03:21:31;;;;;;;3.55;2.15;;;;;;;;;;4994380;28;20027;-42
2022/08/25 03:23:58;;;;;;;1.92;1.73;;;;;;;;;;4994821;28;20030;-45
2022/08/25 03:29:09;;;;;;;2.63;2.10;;;;;;;;;;4988615;28;20089;-42
2022/08/25 03:31:36;;;;;;;3.50;2.35;;;;;;;;;;4994926;28;20105;-42
2022/08/25 03:34:02;;;;;;;3.55;2.45;;;;;;;;;;4994188;28;20097;-42
2022/08/25 03:36:28;;;;;;;3.05;2.40;;;;;;;;;;4994608;28;20031;-41
2022/08/25 03:38:54;;;;;;;2.00;1.80;;;;;;;;;;4994624;28;20105;-41
2022/08/25 03:41:21;;;;;;;2.88;2.50;;;;;;;;;;4992525;28;20054;-41
2022/08/25 03:43:48;;;;;;;3.53;2.22;;;;;;;;;;4991429;28;20384;-42
2022/08/25 03:46:18;;;;;;;2.80;2.08;;;;;;;;;;4993845;28;20101;-43
2022/08/25 03:48:44;;;;;;;2.33;2.03;;;;;;;;;;4994720;28;20022;-43
2022/08/25 03:51:10;;;;;;;3.58;1.95;;;;;;;;;;4993367;28;20058;-42
2022/08/25 03:53:36;;;;;;;2.67;2.03;;;;;;;;;;4994747;28;20061;-42
2022/08/25 03:56:03;;;;;;;2.65;2.28;;;;;;;;;;4993646;28;20041;-43
2022/08/25 03:58:29;;;;;;;2.33;2.05;;;;;;;;;;4989554;28;20388;-42
2022/08/25 04:00:59;;;;;;;2.20;2.00;;;;;;;;;;4995588;28;20051;-42
2022/08/25 04:03:25;;;;;;;2.13;1.92;;;;;;;;;;4993757;28;20026;-41
2022/08/25 04:05:51;;;;;;;3.13;2.20;;;;;;;;;;5001638;28;20041;-42
2022/08/25 04:08:18;;;;;;;3.22;2.33;;;;;;;;;;4993341;28;20081;-41
2022/08/25 04:10:44;;;;;;;4.18;2.45;;;;;;;;;;4994145;28;20035;-42
2022/08/25 04:13:11;;;;;;;2.33;2.13;;;;;;;;;;4992960;28;20025;-42
2022/08/25 04:15:41;;;;;;;4.60;2.45;;;;;;;;;;4988628;28;20061;-41
2022/08/25 04:18:07;;;;;;;1.98;1.77;;;;;;;;;;4993421;28;20027;-41
2022/08/25 04:20:33;;;;;;;4.22;2.05;;;;;;;;;;4994242;28;20459;-44
2022/08/25 04:23:00;;;;;;;2.95;1.77;;;;;;;;;;4993203;28;20070;-45
2022/08/25 04:25:26;;;;;;;2.30;1.70;;;;;;;;;;4993367;28;20030;-42
2022/08/25 04:27:53;;;;;;;3.67;2.40;;;;;;;;;;4993627;28;20447;-42
2022/08/25 04:30:20;;;;;;;2.40;1.90;;;;;;;;;;4992693;28;20018;-41
2022/08/25 04:32:47;;;;;;;2.00;1.80;;;;;;;;;;4988463;28;20023;-41
2022/08/25 04:35:13;;;;;;;2.60;2.05;;;;;;;;;;4992781;28;20045;-41
2022/08/25 04:37:39;;;;;;;3.50;2.28;;;;;;;;;;4993194;28;20058;-41
2022/08/25 04:40:05;;;;;;;2.40;1.98;;;;;;;;;;4993007;28;20054;-42
2022/08/25 04:42:31;;;;;;;2.40;1.95;;;;;;;;;;4993349;28;20034;-42
2022/08/25 04:44:58;;;;;;;2.72;2.00;;;;;;;;;;4993845;28;20102;-42
2022/08/25 04:47:25;;;;;;;6.28;2.13;;;;;;;;;;4989181;28;20342;-42
2022/08/25 04:49:51;;;;;;;4.53;2.50;;;;;;;;;;4992576;28;20105;-42
2022/08/25 04:52:17;;;;;;;2.97;2.15;;;;;;;;;;4992515;28;20097;-45
2022/08/25 04:54:43;;;;;;;2.15;1.95;;;;;;;;;;4993606;28;20037;-41
2022/08/25 04:57:09;;;;;;;2.90;1.92;;;;;;;;;;4992362;28;20027;-41
2022/08/25 04:59:35;;;;;;;2.55;2.22;;;;;;;;;;4993263;28;20411;-41
2022/08/25 05:02:03;;;;;;;2.47;2.13;;;;;;;;;;4993213;28;20061;-45
2022/08/25 05:04:30;;;;;;;2.30;1.90;;;;;;;;;;4988787;28;20033;-42
2022/08/25 05:06:56;;;;;;;2.92;2.22;;;;;;;;;;4998073;28;20037;-41
2022/08/25 05:09:22;;;;;;;3.25;2.33;;;;;;;;;;4992041;28;20611;-42
2022/08/25 05:11:48;;;;;;;3.08;2.10;;;;;;;;;;4993236;28;20018;-42
2022/08/25 05:14:17;;;;;;;2.90;1.98;;;;;;;;;;4992272;28;20045;-42
2022/08/25 05:16:43;;;;;;;2.65;2.33;;;;;;;;;;4992558;28;20490;-42
2022/08/25 05:19:09;;;;;;;3.13;2.30;;;;;;;;;;4992058;28;20026;-41
2022/08/25 05:21:36;;;;;;;3.45;2.05;;;;;;;;;;4990851;28;20101;-43
2022/08/25 05:24:02;;;;;;;3.15;2.28;;;;;;;;;;4990501;28;20038;-47
2022/08/25 05:26:30;;;;;;;2.85;2.10;;;;;;;;;;4992451;28;20049;-42
2022/08/25 05:28:57;;;;;;;3.05;2.50;;;;;;;;;;4992507;28;20057;-42
2022/08/25 05:31:24;;;;;;;3.17;2.60;;;;;;;;;;4991889;28;20105;-42
2022/08/25 05:33:50;;;;;;;3.30;1.55;;;;;;;;;;4992679;28;20029;-42
2022/08/25 05:36:18;;;;;;;3.00;2.47;;;;;;;;;;4991604;28;20026;-42
2022/08/25 05:38:44;;;;;;;2.67;2.35;;;;;;;;;;4990250;28;20023;-42
2022/08/25 05:41:12;;;;;;;3.33;2.47;;;;;;;;;;4993241;28;20154;-41
2022/08/25 05:43:39;;;;;;;4.47;2.22;;;;;;;;;;4992445;28;20022;-41
2022/08/25 05:46:06;;;;;;;4.10;2.30;;;;;;;;;;4991880;28;20125;-47
2022/08/25 05:48:32;;;;;;;2.95;2.30;;;;;;;;;;4974806;28;20034;-42
2022/08/25 05:50:59;;;;;;;2.30;1.92;;;;;;;;;;4992654;28;20026;-42
2022/08/25 05:53:26;;;;;;;3.20;2.28;;;;;;;;;;4991539;28;20157;-41
2022/08/25 05:55:52;;;;;;;3.50;2.50;;;;;;;;;;4992114;28;20030;-42
2022/08/25 05:58:19;;;;;;;3.20;2.42;;;;;;;;;;4987032;28;20034;-42
2022/08/25 06:00:45;;;;;;;4.95;2.70;;;;;;;;;;4993352;28;20054;-42
2022/08/25 06:03:11;;;;;;;3.08;2.28;;;;;;;;;;4991031;28;20037;-42
2022/08/25 06:05:37;;;;;;;5.88;2.38;;;;;;;;;;4992780;28;20038;-43
2022/08/25 06:08:03;;;;;;;4.43;2.70;;;;;;;;;;4992770;28;20052;-42
2022/08/25 06:10:29;;;;;;;6.38;2.80;;;;;;;;;;4991540;28;20033;-44
2022/08/25 06:12:55;;;;;;;4.10;2.45;;;;;;;;;;4984693;28;20046;-47
2022/08/25 06:15:22;;;;;;;2.53;2.00;;;;;;;;;;4988990;28;20117;-46
2022/08/25 06:17:49;;;;;;;4.80;2.80;;;;;;;;;;4990576;28;20495;-45
2022/08/25 06:20:16;;;;;;;4.18;2.70;;;;;;;;;;4991222;28;20061;-45
2022/08/25 06:22:43;;;;;;;7.72;2.85;;;;;;;;;;4992205;28;20076;-44
2022/08/25 06:25:10;;;;;;;6.53;2.90;;;;;;;;;;4991033;28;20034;-46
2022/08/25 06:27:36;;;;;;;3.17;2.83;;;;;;;;;;4991911;28;20026;-43
2022/08/25 06:30:03;;;;;;;5.03;3.05;;;;;;;;;;4990253;28;20062;-42
2022/08/25 06:32:34;;;;;;;11.27;3.60;;;;;;;;;;4993710;28;20069;-41
2022/08/25 06:35:00;;;;;;;7.85;3.90;;;;;;;;;;4994274;28;20061;-43
2022/08/25 06:37:26;;;;;;;6.95;3.10;;;;;;;;;;4994268;28;20019;-42
2022/08/25 06:39:52;;;;;;;7.10;2.70;;;;;;;;;;4985381;28;20037;-42
2022/08/25 06:42:18;;;;;;;4.72;3.13;;;;;;;;;;4990804;28;20038;-45
2022/08/25 06:44:44;;;;;;;3.53;2.80;;;;;;;;;;4987354;28;20138;-42
2022/08/25 06:47:10;;;;;;;4.25;2.75;;;;;;;;;;4986372;28;20088;-50
2022/08/25 06:49:36;;;;;;;4.90;2.85;;;;;;;;;;4985794;28;20027;-45
2022/08/25 06:52:03;;;;;;;5.03;3.40;;;;;;;;;;5000317;28;20025;-46
2022/08/25 06:54:29;;;;;;;5.57;3.15;;;;;;;;;;5002610;28;20037;-45
2022/08/25 06:56:55;;;;;;;6.55;4.20;;;;;;;;;;4989943;28;20383;-44
2022/08/25 06:59:21;;;;;;;7.72;3.38;;;;;;;;;;4991554;28;20467;-42
2022/08/25 07:01:47;;;;;;;4.88;3.63;;;;;;;;;;4996129;28;20177;-47
2022/08/25 07:04:13;;;;;;;7.05;3.70;;;;;;;;;;4995920;28;20475;-44
2022/08/25 07:06:39;;;;;;;6.10;3.10;;;;;;;;;;4997594;28;20030;-45
2022/08/25 07:09:06;;;;;;;4.60;3.30;;;;;;;;;;4994799;28;20157;-49
2022/08/25 07:11:33;;;;;;;3.97;2.78;;;;;;;;;;4994708;28;20018;-44
2022/08/25 07:14:02;;;;;;;3.50;2.85;;;;;;;;;;4995674;28;20025;-47
2022/08/25 07:16:30;;;;;;;6.53;3.20;;;;;;;;;;4971094;28;20768;-45
2022/08/25 07:18:56;;;;;;;6.40;3.63;;;;;;;;;;4996319;28;20053;-44
2022/08/25 07:21:27;;;;;;;7.03;3.63;;;;;;;;;;4989976;28;20026;-43
2022/08/25 07:23:53;;;;;;;5.20;3.30;;;;;;;;;;4998512;28;20088;-47
2022/08/25 07:26:23;;;;;;;7.65;3.60;;;;;;;;;;4998254;28;20057;-43
2022/08/25 07:28:49;;;;;;;5.80;3.30;;;;;;;;;;4998753;28;20026;-46
2022/08/25 07:31:15;;;;;;;5.47;3.55;;;;;;;;;;4993926;28;20022;-46
2022/08/25 07:36:30;;;;;;;4.70;3.33;;;;;;;;;;4991649;28;20033;-44
2022/08/25 07:38:56;;;;;;;6.70;3.40;;;;;;;;;;5000085;28;20109;-43
2022/08/25 07:41:22;;;;;;;4.93;3.58;;;;;;;;;;4998940;28;20555;-44
2022/08/25 07:43:49;;;;;;;5.55;3.33;;;;;;;;;;5001157;28;20034;-43
2022/08/25 07:46:14;;;;;;;4.97;3.22;;;;;;;;;;5003817;28;20470;-43
2022/08/25 07:48:41;;;;;;;5.05;3.55;;;;;;;;;;5002765;28;20032;-43
2022/08/25 07:51:08;;;;;;;5.18;3.50;;;;;;;;;;5001824;28;20022;-50
2022/08/25 07:53:34;;;;;;;8.32;4.32;;;;;;;;;;4975852;28;20030;-51
2022/08/25 07:56:00;;;;;;;7.30;4.65;;;;;;;;;;4994224;28;20487;-43
2022/08/25 07:58:26;;;;;;;5.45;3.83;;;;;;;;;;4994118;28;20022;-46
2022/08/25 08:00:52;;;;;;;5.40;4.35;;;;;;;;;;4977684;28;20065;-45
2022/08/25 08:03:19;;;;;;;6.40;4.07;;;;;;;;;;4995494;28;20471;-45
2022/08/25 08:05:46;;;;;;;7.30;4.05;;;;;;;;;;4998254;28;20031;-42
2022/08/25 08:08:12;;;;;;;6.30;4.30;;;;;;;;;;5000315;28;20041;-44
2022/08/25 08:10:38;;;;;;;8.40;3.78;;;;;;;;;;4993649;28;20030;-42
2022/08/25 08:13:04;;;;;;;6.30;3.70;;;;;;;;;;4998564;28;20360;-43
2022/08/25 08:15:30;;;;;;;5.88;4.03;;;;;;;;;;4997925;28;20807;-47
2022/08/25 08:18:00;;;;;;;5.35;3.90;;;;;;;;;;4986104;28;20038;-42
2022/08/25 08:20:27;;;;;;;5.93;4.00;;;;;;;;;;4986463;28;20803;-43
2022/08/25 08:22:53;;;;;;;6.13;3.78;;;;;;;;;;4994099;28;20105;-45
2022/08/25 08:25:19;;;;;;;6.90;4.13;;;;;;;;;;5002112;28;20502;-43
2022/08/25 08:27:45;;;;;;;6.63;4.25;;;;;;;;;;5000003;28;20023;-43
2022/08/25 08:30:12;;;;;;;6.50;3.75;;;;;;;;;;4993621;28;20037;-44
2022/08/25 08:32:38;;;;;;;6.88;4.15;;;;;;;;;;4993479;28;20125;-42
2022/08/25 08:35:05;;;;;;;4.22;3.60;;;;;;;;;;4995580;28;20486;-43
2022/08/25 08:37:31;;;;;;;7.55;4.15;;;;;;;;;;4992298;28;20171;-44
2022/08/25 08:40:00;;;;;;;7.70;3.63;;;;;;;;;;4996054;28;20117;-43
2022/08/25 08:42:51;;;;;;;4.72;3.65;;;;;;;;;;4996092;28;20142;-43
2022/08/25 08:45:17;;;;;;;5.65;3.70;;;;;;;;;;4984734;28;20034;-44
2022/08/25 08:47:51;;;;;;;5.45;4.28;;;;;;;;;;4998273;28;20037;-45
2022/08/25 08:50:36;;;;;;;5.85;3.78;;;;;;;;;;4990843;28;20028;-43
2022/08/25 08:53:01;;;;;;;6.10;4.00;;;;;;;;;;4994827;28;20030;-42
2022/08/25 08:55:31;;;;;;;7.50;4.20;;;;;;;;;;5001545;28;20041;-42
2022/08/25 08:57:58;;;;;;;5.40;3.75;;;;;;;;;;4999084;28;20045;-44
2022/08/25 09:00:24;;;;;;;6.05;3.60;;;;;;;;;;4999004;28;20177;-43
2022/08/25 09:03:04;;;;;;;4.65;3.30;;;;;;;;;;5000691;28;20073;-44
2022/08/25 09:05:31;;;;;;;6.28;3.28;;;;;;;;;;4996825;28;20101;-44
2022/08/25 09:08:00;;;;;;;4.80;3.45;;;;;;;;;;4993793;28;20082;-43
2022/08/25 09:10:34;;;;;;;4.68;3.75;;;;;;;;;;4992981;28;20034;-44
2022/08/25 09:13:11;;;;;;;4.95;3.75;;;;;;;;;;4992638;28;20042;-45
2022/08/25 09:18:48;;;;;;;5.68;4.00;;;;;;;;;;4994904;28;20411;-42
2022/08/25 09:21:35;;;;;;;5.10;3.65;;;;;;;;;;4959643;28;20034;-42
2022/08/25 09:24:16;;;;;;;4.32;3.53;;;;;;;;;;4997504;28;20026;-44
2022/08/25 09:26:53;;;;;;;5.22;3.53;;;;;;;;;;4997662;28;20039;-42
2022/08/25 09:29:24;;;;;;;5.90;3.50;;;;;;;;;;4999232;28;20029;-44
2022/08/25 09:31:51;;;;;;;3.65;2.83;;;;;;;;;;4998489;28;20037;-44
2022/08/25 09:34:18;;;;;;;5.63;3.53;;;;;;;;;;4999807;28;20053;-44
2022/08/25 09:36:47;;;;;;;5.50;3.17;;;;;;;;;;4992298;28;20030;-44
2022/08/25 09:39:13;;;;;;;3.47;3.17;;;;;;;;;;4992627;28;20034;-45
2022/08/25 09:41:45;;;;;;;4.10;3.20;;;;;;;;;;4993096;28;20038;-46
2022/08/25 09:44:30;;;;;;;5.32;3.30;;;;;;;;;;4993223;28;20037;-47
2022/08/25 09:47:06;;;;;;;4.20;3.30;;;;;;;;;;4994200;28;20090;-42
2022/08/25 09:49:44;;;;;;;3.88;3.45;;;;;;;;;;4991942;28;20033;-44
2022/08/25 09:52:25;;;;;;;4.38;3.45;;;;;;;;;;4991616;28;20514;-47
2022/08/25 09:54:52;;;;;;;4.10;3.47;;;;;;;;;;4995760;28;20038;-43
2022/08/25 09:57:46;;;;;;;5.00;3.17;;;;;;;;;;4997479;28;20030;-42
2022/08/25 10:00:17;;;;;;;5.03;3.30;;;;;;;;;;4988924;28;20383;-46
2022/08/25 10:02:45;;;;;;;3.78;3.25;;;;;;;;;;4997797;28;20038;-45
2022/08/25 10:05:21;;;;;;;3.90;3.22;;;;;;;;;;4995927;28;20026;-47
2022/08/25 10:07:52;;;;;;;4.32;3.05;;;;;;;;;;5001918;28;20498;-42
2022/08/25 10:10:24;;;;;;;6.35;3.08;;;;;;;;;;4995798;28;20030;-43
2022/08/25 10:12:50;;;;;;;3.97;3.28;;;;;;;;;;4995739;28;20027;-42
2022/08/25 10:15:20;;;;;;;3.28;2.70;;;;;;;;;;4996778;28;20046;-43
2022/08/25 10:17:46;;;;;;;3.58;3.00;;;;;;;;;;5000505;28;20498;-45
2022/08/25 10:20:23;;;;;;;4.13;3.30;;;;;;;;;;4996952;28;20038;-43
2022/08/25 10:22:50;;;;;;;3.33;2.88;;;;;;;;;;4995150;28;20033;-42
2022/08/25 10:25:20;;;;;;;7.03;2.70;;;;;;;;;;5002405;28;20034;-43
2022/08/25 10:28:24;;;;;;;6.25;3.13;;;;;;;;;;5003785;28;20034;-43
2022/08/25 10:31:09;;;;;;;3.70;3.20;;;;;;;;;;4942893;29;20468;-44
2022/08/25 10:33:48;;;;;;;4.03;3.45;;;;;;;;;;4952296;29;20090;-47
2022/08/25 10:36:18;;;;;;;3.47;2.90;;;;;;;;;;4950170;29;20047;-43
2022/08/25 10:38:44;;;;;;;3.70;2.83;;;;;;;;;;4939237;29;20031;-45
2022/08/25 10:41:19;;;;;;;3.40;3.00;;;;;;;;;;4950426;29;20110;-49
2022/08/25 10:44:04;;;;;;;2.88;2.47;;;;;;;;;;4947094;29;20055;-42
2022/08/25 10:46:39;;;;;;;3.80;2.92;;;;;;;;;;4949835;29;20039;-45
2022/08/25 10:49:31;;;;;;;3.92;2.78;;;;;;;;;;4947018;29;20515;-44
2022/08/25 10:52:04;;;;;;;5.33;2.73;;;;;;;;;;4946271;29;20032;-44
2022/08/25 10:54:45;;;;;;;5.15;3.60;;;;;;;;;;4933910;29;20299;-48
2022/08/25 10:57:30;;;;;;;4.67;3.10;;;;;;;;;;4934311;29;20128;-47
2022/08/25 11:00:28;;;;;;;3.55;2.90;;;;;;;;;;4937280;29;20050;-44
2022/08/25 11:03:13;;;;;;;3.60;2.72;;;;;;;;;;4951758;28;20042;-43
2022/08/25 11:05:54;;;;;;;3.13;2.67;;;;;;;;;;4999061;28;20040;-44
2022/08/25 11:08:26;;;;;;;5.82;3.00;;;;;;;;;;5002100;28;20034;-45
2022/08/25 11:10:56;;;;;;;4.07;3.10;;;;;;;;;;5002813;28;20034;-43
2022/08/25 11:13:25;;;;;;;6.85;3.00;;;;;;;;;;4995086;28;20038;-43
2022/08/25 11:16:05;;;;;;;4.43;3.05;;;;;;;;;;4995734;28;20041;-45
2022/08/25 11:18:31;;;;;;;4.28;2.75;;;;;;;;;;4995749;28;20030;-45
2022/08/25 11:21:06;;;;;;;3.47;2.65;;;;;;;;;;4997257;28;20033;-42
2022/08/25 11:23:37;;;;;;;4.13;3.05;;;;;;;;;;4994419;28;20038;-43
2022/08/25 11:26:04;;;;;;;;;;;;;;;;;;4998578;28;20030;-45
2022/08/25 11:28:35;;;;;;;4.78;2.80;;;;;;;;;;4996811;28;19905;-48
2022/08/25 11:31:02;;;;;;;4.50;2.88;;;;;;;;;;4998301;28;20106;-46
2022/08/25 11:33:29;;;;;;;4.75;3.33;;;;;;;;;;5000619;28;20715;-43
2022/08/25 11:35:58;;;;;;;4.22;2.72;;;;;;;;;;4998179;28;20113;-42
2022/08/25 11:38:42;;;;;;;3.42;2.83;;;;;;;;;;4997434;28;20502;-43
2022/08/25 11:41:14;;;;;;;5.97;2.60;;;;;;;;;;4999134;28;20030;-49
2022/08/25 11:43:48;;;;;;;4.72;3.05;;;;;;;;;;5002340;28;20018;-45
2022/08/25 11:46:23;;;;;;;3.67;2.70;;;;;;;;;;4985125;28;20033;-45
2022/08/25 11:48:52;;;;;;;6.28;3.08;;;;;;;;;;5000405;28;20038;-45
2022/08/25 11:51:39;;;;;;;3.22;2.78;;;;;;;;;;4999727;28;20030;-42
2022/08/25 11:54:11;;;;;;;3.47;3.17;;;;;;;;;;5003107;28;20052;-42
2022/08/25 11:56:40;;;;;;;5.70;3.10;;;;;;;;;;5001741;28;20054;-43
2022/08/25 11:59:07;;;;;;;4.15;3.10;;;;;;;;;;5001777;28;20076;-46
2022/08/25 12:01:38;;;;;;;3.78;2.42;;;;;;;;;;4994085;28;20076;-42
2022/08/25 12:04:23;;;;;;;10.43;3.58;;;;;;;;;;4994698;28;20034;-42
2022/08/25 12:07:04;;;;;;;3.65;2.92;;;;;;;;;;4990006;28;20100;-43
2022/08/25 12:09:31;;;;;;;3.35;2.70;;;;;;;;;;4993228;28;20193;-46
2022/08/25 12:11:58;;;;;;;4.75;2.67;;;;;;;;;;4998062;28;20118;-42
2022/08/25 12:14:24;;;;;;;5.25;3.22;;;;;;;;;;4998027;28;20038;-46
2022/08/25 12:16:55;;;;;;;3.08;2.67;;;;;;;;;;4998983;28;20089;-43
2022/08/25 12:19:22;;;;;;;3.38;2.50;;;;;;;;;;5000735;28;20030;-44
2022/08/25 12:21:49;;;;;;;6.13;2.53;;;;;;;;;;4984793;28;20157;-44
2022/08/25 12:24:17;;;;;;;3.30;2.33;;;;;;;;;;4992592;28;20109;-45
2022/08/25 12:27:00;;;;;;;3.10;2.38;;;;;;;;;;5001043;28;20034;-43
2022/08/25 12:29:26;;;;;;;3.25;2.80;;;;;;;;;;5000707;28;20088;-43
2022/08/25 12:32:10;;;;;;;3.15;2.55;;;;;;;;;;4992956;28;20022;-44
2022/08/25 12:34:39;;;;;;;4.25;2.60;;;;;;;;;;4992361;28;20088;-42
2022/08/25 12:37:26;;;;;;;3.08;2.50;;;;;;;;;;4994038;28;20105;-43
2022/08/25 12:40:02;;;;;;;3.60;2.80;;;;;;;;;;4994097;28;20436;-43
2022/08/25 12:42:36;;;;;;;3.80;2.22;;;;;;;;;;4978656;28;20779;-45
2022/08/25 12:45:24;;;;;;;3.38;2.75;;;;;;;;;;4981621;28;20360;-42
2022/08/25 12:47:50;;;;;;;3.45;2.67;;;;;;;;;;4994871;28;20030;-44
2022/08/25 12:50:27;;;;;;;3.08;2.67;;;;;;;;;;4994288;28;20046;-45
2022/08/25 12:52:55;;;;;;;4.95;2.92;;;;;;;;;;4995169;28;20525;-44
2022/08/25 12:55:22;;;;;;;3.10;2.20;;;;;;;;;;4997135;28;20371;-43
2022/08/25 12:57:56;;;;;;;3.22;2.30;;;;;;;;;;4998297;28;20034;-45
2022/08/25 13:00:22;;;;;;;6.00;2.40;;;;;;;;;;4993079;28;20109;-42
2022/08/25 13:02:56;;;;;;;2.97;2.67;;;;;;;;;;5002849;28;20021;-42
2022/08/25 13:05:25;;;;;;;3.42;2.50;;;;;;;;;;4993495;28;20112;-42
2022/08/25 13:07:51;;;;;;;3.28;2.40;;;;;;;;;;4993189;28;20035;-43
2022/08/25 13:10:43;;;;;;;2.97;2.30;;;;;;;;;;5000013;28;20030;-42
2022/08/25 13:13:19;;;;;;;2.30;2.10;;;;;;;;;;4949087;28;20085;-45
2022/08/25 13:15:47;;;;;;;4.03;2.63;;;;;;;;;;4992816;28;20030;-45
2022/08/25 13:18:25;;;;;;;2.90;2.58;;;;;;;;;;4999001;28;20037;-47
2022/08/25 13:21:02;;;;;;;2.95;2.47;;;;;;;;;;4986340;28;20030;-48
2022/08/25 13:23:28;;;;;;;2.95;2.25;;;;;;;;;;4991762;28;20046;-43
2022/08/25 13:25:55;;;;;;;2.47;2.20;;;;;;;;;;4992340;28;20030;-44
2022/08/25 13:28:29;;;;;;;2.67;2.28;;;;;;;;;;4994905;28;20026;-42
2022/08/25 13:30:57;;;;;;;2.67;2.40;;;;;;;;;;4998391;28;20371;-44
2022/08/25 13:33:23;;;;;;;2.67;2.13;;;;;;;;;;4987023;28;20057;-43
2022/08/25 13:37:26;;;;;;;2.65;2.45;;;;;;;;;;4998226;28;20033;-42
2022/08/25 13:38:36;;;;;;;2.78;1.98;;;;;;;;;;5000865;28;20037;-44
2022/08/25 13:41:03;;;;;;;3.25;2.30;;;;;;;;;;4996705;28;20026;-42
2022/08/25 13:43:29;;;;;;;3.35;2.40;;;;;;;;;;4991657;28;20026;-42
2022/08/25 13:45:55;;;;;;;2.83;2.15;;;;;;;;;;4991520;28;20035;-42
2022/08/25 13:48:35;;;;;;;3.35;2.30;;;;;;;;;;4996299;28;20089;-44
2022/08/25 13:51:14;;;;;;;3.15;2.22;;;;;;;;;;4995582;28;20026;-42
2022/08/25 13:53:40;;;;;;;3.33;2.70;;;;;;;;;;4997111;28;20034;-47
2022/08/25 13:56:06;;;;;;;2.58;2.00;;;;;;;;;;4991890;28;20030;-42
2022/08/25 13:58:35;;;;;;;2.85;2.20;;;;;;;;;;4998837;28;20053;-43
2022/08/25 14:01:13;;;;;;;3.30;1.90;;;;;;;;;;5001912;28;20058;-42
2022/08/25 14:03:43;;;;;;;3.17;2.20;;;;;;;;;;4989071;28;20050;-45
2022/08/25 14:06:21;;;;;;;3.05;2.00;;;;;;;;;;4989336;28;20388;-43
2022/08/25 14:08:50;;;;;;;2.88;2.47;;;;;;;;;;4986502;28;20380;-42
2022/08/25 14:11:31;;;;;;;2.10;1.90;;;;;;;;;;4992698;28;20506;-43
2022/08/25 14:14:01;;;;;;;2.33;1.60;;;;;;;;;;4992895;28;20030;-43
2022/08/25 14:16:27;;;;;;;3.33;2.13;;;;;;;;;;4994441;28;20023;-43
2022/08/25 14:18:55;;;;;;;6.57;2.00;;;;;;;;;;4992756;28;20043;-46
2022/08/25 14:21:31;;;;;;;3.95;2.20;;;;;;;;;;4995490;28;20210;-42
2022/08/25 14:23:58;;;;;;;3.53;2.35;;;;;;;;;;4996868;28;20038;-44
2022/08/25 14:26:25;;;;;;;2.80;2.10;;;;;;;;;;4998933;28;20030;-42
2022/08/25 14:28:51;;;;;;;3.05;2.20;;;;;;;;;;5001068;28;20030;-44
2022/08/25 14:31:17;;;;;;;2.22;1.92;;;;;;;;;;4997774;28;20030;-51
2022/08/25 14:33:47;;;;;;;2.35;2.13;;;;;;;;;;4998714;28;20034;-43
2022/08/25 14:36:13;;;;;;;4.10;2.17;;;;;;;;;;4997379;28;20030;-48
2022/08/25 14:38:39;;;;;;;2.35;2.15;;;;;;;;;;5002263;28;20033;-44
2022/08/25 14:41:08;;;;;;;3.22;1.88;;;;;;;;;;4994582;28;20034;-47
2022/08/25 14:43:34;;;;;;;4.78;2.05;;;;;;;;;;4996130;28;20061;-43
2022/08/25 14:46:02;;;;;;;2.22;1.80;;;;;;;;;;4997113;28;20089;-42
2022/08/25 14:48:30;;;;;;;3.00;2.15;;;;;;;;;;4999967;28;20375;-42
2022/08/25 14:50:57;;;;;;;2.30;2.05;;;;;;;;;;4998410;28;20420;-46
2022/08/25 14:53:24;;;;;;;2.35;1.83;;;;;;;;;;4990315;28;20551;-42
2022/08/25 14:55:53;;;;;;;2.17;1.95;;;;;;;;;;4989639;28;20042;-44
2022/08/25 14:58:19;;;;;;;2.60;1.92;;;;;;;;;;4984650;28;20041;-45
2022/08/25 15:00:46;;;;;;;2.15;1.90;;;;;;;;;;4988255;28;20050;-44
2022/08/25 15:03:17;;;;;;;2.80;1.88;;;;;;;;;;4993763;28;20030;-44
2022/08/25 15:05:44;;;;;;;2.28;2.05;;;;;;;;;;4993109;28;20027;-42